Wetterdaten: aktuell Freitag, 18.09.2020 21:50
Datum Zeit Temp. I. Temp. A. Feuchte I. Feuchte A. Luftdruck Regen Wind Richtung Richtung Sonnenschein ET UV Solar Taupunkt Windchill Windben Empfang
18.09.2020 21:50 21,2 C 13,0 C 46 % 54 % 1026,5 hPa 0,0 l/m 1,9 km/h N-NO 16 0 min 0,051 mm 0,0 UV-I 0 W/m 3,9 C 13,0 C 6,4 km/h 99 %
18.09.2020 20:50 21,3 C 13,3 C 46 % 54 % 1026,5 hPa 0,0 l/m 2,8 km/h N 360 0 min 0,025 mm 0,0 UV-I 0 W/m 4,2 C 13,3 C 6,4 km/h 100 %
18.09.2020 19:50 21,6 C 13,3 C 45 % 55 % 1026,3 hPa 0,0 l/m 3,9 km/h N-NW 344 0 min 0,051 mm 0,0 UV-I 0 W/m 4,5 C 13,3 C 6,4 km/h 100 %
18.09.2020 18:50 21,9 C 14,1 C 44 % 56 % 1025,8 hPa 0,0 l/m 5,0 km/h N-NW 342 30 min 0,127 mm 0,0 UV-I 11 W/m 5,5 C 14,1 C 6,4 km/h 100 %
18.09.2020 17:50 22,2 C 15,8 C 45 % 53 % 1025,8 hPa 0,0 l/m 1,3 km/h N-NW 330 60 min 0,229 mm 0,0 UV-I 142 W/m 6,2 C 15,8 C 3,2 km/h 99 %
18.09.2020 16:50 22,3 C 16,2 C 46 % 47 % 1026,1 hPa 0,0 l/m 2,8 km/h N-NW 344 60 min 0,304 mm 0,9 UV-I 336 W/m 4,9 C 16,2 C 8,0 km/h 100 %
18.09.2020 15:50 21,8 C 15,9 C 47 % 50 % 1026,3 hPa 0,0 l/m 4,4 km/h W-NW 297 60 min 0,356 mm 1,9 UV-I 501 W/m 5,5 C 15,9 C 8,0 km/h 100 %
18.09.2020 14:50 21,8 C 15,3 C 47 % 53 % 1026,4 hPa 0,0 l/m 2,8 km/h N 350 60 min 0,356 mm 3,2 UV-I 613 W/m 5,8 C 15,3 C 9,7 km/h 100 %
18.09.2020 13:50 21,8 C 14,3 C 47 % 61 % 1026,6 hPa 0,0 l/m 1,9 km/h NW 304 60 min 0,279 mm 4,1 UV-I 686 W/m 6,9 C 14,3 C 6,4 km/h 100 %
18.09.2020 12:50 22,0 C 12,5 C 46 % 69 % 1026,9 hPa 0,0 l/m 8,8 km/h N-NW 341 50 min 0,330 mm 4,4 UV-I 635 W/m 7,0 C 11,0 C 16,1 km/h 100 %
18.09.2020 11:50 23,8 C 11,6 C 42 % 71 % 1026,7 hPa 0,0 l/m 9,3 km/h N-NW 328 60 min 0,280 mm 4,1 UV-I 661 W/m 6,5 C 9,8 C 19,3 km/h 100 %
18.09.2020 10:50 22,1 C 10,8 C 47 % 72 % 1026,9 hPa 0,0 l/m 8,1 km/h N-NO 28 60 min 0,203 mm 3,2 UV-I 589 W/m 6,0 C 9,6 C 17,7 km/h 100 %
18.09.2020 09:50 22,6 C 9,6 C 47 % 77 % 1026,4 hPa 0,0 l/m 9,8 km/h NW 323 60 min 0,101 mm 1,9 UV-I 452 W/m 5,8 C 7,3 C 20,9 km/h 100 %
18.09.2020 08:50 21,8 C 8,7 C 53 % 81 % 1025,6 hPa 0,0 l/m 11,6 km/h N-NW 330 60 min 0,051 mm 0,9 UV-I 287 W/m 5,6 C 5,2 C 20,9 km/h 100 %
18.09.2020 07:50 21,2 C 7,9 C 55 % 81 % 1025,3 hPa 0,0 l/m 13,8 km/h NW 321 0 min 0,026 mm 0,0 UV-I 107 W/m 4,8 C 3,2 C 20,9 km/h 100 %
18.09.2020 06:50 21,1 C 7,5 C 56 % 83 % 1024,9 hPa 0,0 l/m 13,3 km/h W-NW 290 0 min 0,025 mm 0,0 UV-I 12 W/m 4,8 C 2,9 C 24,1 km/h 100 %
18.09.2020 05:50 21,3 C 7,8 C 57 % 83 % 1024,7 hPa 0,0 l/m 13,5 km/h N-NO 14 0 min 0,025 mm 0,0 UV-I 0 W/m 5,1 C 3,2 C 19,3 km/h 100 %
18.09.2020 04:50 21,5 C 7,9 C 57 % 84 % 1024,7 hPa 0,0 l/m 10,6 km/h N-NW 340 0 min 0,026 mm 0,0 UV-I 0 W/m 5,4 C 4,9 C 16,1 km/h 100 %
18.09.2020 03:50 21,7 C 8,4 C 58 % 83 % 1024,4 hPa 0,0 l/m 10,8 km/h NW 313 0 min 0,025 mm 0,0 UV-I 0 W/m 5,7 C 5,3 C 14,5 km/h 100 %
18.09.2020 02:50 21,9 C 9,0 C 58 % 80 % 1024,5 hPa 0,0 l/m 10,4 km/h N 349 0 min 0,026 mm 0,0 UV-I 0 W/m 5,7 C 6,3 C 14,5 km/h 100 %
18.09.2020 01:50 22,1 C 9,7 C 58 % 78 % 1024,5 hPa 0,0 l/m 10,4 km/h N 350 0 min 0,025 mm 0,0 UV-I 0 W/m 6,1 C 7,0 C 14,5 km/h 100 %
18.09.2020 00:50 22,2 C 10,5 C 58 % 76 % 1024,3 hPa 0,0 l/m 9,5 km/h N 350 0 min 0,000 mm 0,0 UV-I 0 W/m 6,5 C 8,4 C 16,1 km/h 100 %
18.09.2020 00:00 22,4 C 11,4 C 59 % 75 % 1024,4 hPa 0,0 l/m 7,1 km/h N-NW 348 0 min 0,000 mm 0,0 UV-I 0 W/m 7,1 C 10,9 C 11,3 km/h 100 %
_ Min-Zeit 06:45 06:45 11:40 16:50 00:05 - 15:20 - - - - - - 21:30 05:45 15:20 06:25
Minimum _ 21,1 C 7,5 C 42 % 47 % 1024,3 hPa - 0,4 km/h - - - - - - 3,8 C 2,7 C 3,2 km/h 98 %
_ Max-Zeit 11:40 15:35 00:00 04:10 12:35 00:00 08:10 - - 07:55 14:00 12:25 12:00 13:35 15:35 09:55 00:00
Maximum _ 24,1 C 16,4 C 59 % 84 % 1027,1 hPa 0,0 l/m 15,1 km/h
N
- - 5 min 0,356 mm 4,5 UV-I 717 W/m 7,4 C 16,4 C 25,7 km/h
NW
100 %
Durchschnitt _ 21,9 C 11,5 C 51 % 69 % 1025,7 hPa #0,0 l/m 7,5 km/h N-NW - #10:20 h #2,921 mm 2,7 UV-I 395 W/m 5,7 C 9,9 C 13,4 km/h 100 %